sensor_id;sensor_type;location;lat;lon;timestamp;P1;durP1;ratioP1;P2;durP2;ratioP2
18194;SDS011;9223;50.988;3.162;2023-04-30T00:05:29;15.25;;;11.07;;
18194;SDS011;9223;50.988;3.162;2023-04-30T00:11:33;14.82;;;11.20;;
18194;SDS011;9223;50.988;3.162;2023-04-30T00:17:38;16.70;;;11.85;;
18194;SDS011;9223;50.988;3.162;2023-04-30T00:23:41;15.88;;;11.10;;
18194;SDS011;9223;50.988;3.162;2023-04-30T00:29:45;17.80;;;10.70;;
18194;SDS011;9223;50.988;3.162;2023-04-30T00:35:49;14.10;;;10.77;;
18194;SDS011;9223;50.988;3.162;2023-04-30T00:41:53;14.25;;;10.57;;
18194;SDS011;9223;50.988;3.162;2023-04-30T00:47:56;14.95;;;11.48;;
18194;SDS011;9223;50.988;3.162;2023-04-30T00:54:02;13.57;;;10.43;;
18194;SDS011;9223;50.988;3.162;2023-04-30T01:00:06;16.48;;;10.98;;
18194;SDS011;9223;50.988;3.162;2023-04-30T01:06:11;13.73;;;10.95;;
18194;SDS011;9223;50.988;3.162;2023-04-30T01:12:17;16.60;;;11.13;;
18194;SDS011;9223;50.988;3.162;2023-04-30T01:18:25;14.75;;;10.30;;
18194;SDS011;9223;50.988;3.162;2023-04-30T01:24:37;16.75;;;10.93;;
18194;SDS011;9223;50.988;3.162;2023-04-30T01:30:47;13.57;;;10.00;;
18194;SDS011;9223;50.988;3.162;2023-04-30T01:36:58;16.60;;;11.60;;
18194;SDS011;9223;50.988;3.162;2023-04-30T01:43:08;17.48;;;11.02;;
18194;SDS011;9223;50.988;3.162;2023-04-30T01:49:18;16.50;;;11.18;;
18194;SDS011;9223;50.988;3.162;2023-04-30T01:55:23;14.07;;;10.57;;
18194;SDS011;9223;50.988;3.162;2023-04-30T02:01:30;17.38;;;10.88;;
18194;SDS011;9223;50.988;3.162;2023-04-30T02:07:38;14.88;;;10.82;;
18194;SDS011;9223;50.988;3.162;2023-04-30T02:13:42;16.65;;;11.60;;
18194;SDS011;9223;50.988;3.162;2023-04-30T02:19:45;15.95;;;11.00;;
18194;SDS011;9223;50.988;3.162;2023-04-30T02:25:50;15.02;;;10.57;;
18194;SDS011;9223;50.988;3.162;2023-04-30T02:31:56;18.17;;;11.23;;
18194;SDS011;9223;50.988;3.162;2023-04-30T02:37:59;17.83;;;11.15;;
18194;SDS011;9223;50.988;3.162;2023-04-30T02:44:04;15.98;;;10.77;;
18194;SDS011;9223;50.988;3.162;2023-04-30T02:50:08;19.40;;;11.32;;
18194;SDS011;9223;50.988;3.162;2023-04-30T02:56:12;17.90;;;11.23;;
18194;SDS011;9223;50.988;3.162;2023-04-30T03:02:16;17.15;;;11.27;;
18194;SDS011;9223;50.988;3.162;2023-04-30T03:08:22;16.27;;;11.18;;
18194;SDS011;9223;50.988;3.162;2023-04-30T03:14:25;17.42;;;11.38;;
18194;SDS011;9223;50.988;3.162;2023-04-30T03:20:31;17.25;;;11.38;;
18194;SDS011;9223;50.988;3.162;2023-04-30T03:26:34;17.05;;;11.20;;
18194;SDS011;9223;50.988;3.162;2023-04-30T03:32:38;15.32;;;10.48;;
18194;SDS011;9223;50.988;3.162;2023-04-30T03:38:43;13.52;;;10.05;;
18194;SDS011;9223;50.988;3.162;2023-04-30T03:44:46;14.10;;;10.82;;
18194;SDS011;9223;50.988;3.162;2023-04-30T03:50:50;14.48;;;10.40;;
18194;SDS011;9223;50.988;3.162;2023-04-30T03:56:55;15.00;;;10.10;;
18194;SDS011;9223;50.988;3.162;2023-04-30T04:02:58;14.90;;;10.45;;
18194;SDS011;9223;50.988;3.162;2023-04-30T04:09:02;15.93;;;10.18;;
18194;SDS011;9223;50.988;3.162;2023-04-30T04:15:08;15.00;;;10.45;;
18194;SDS011;9223;50.988;3.162;2023-04-30T04:21:12;13.75;;;9.60;;
18194;SDS011;9223;50.988;3.162;2023-04-30T04:27:15;15.98;;;10.90;;
18194;SDS011;9223;50.988;3.162;2023-04-30T04:33:21;16.77;;;10.82;;
18194;SDS011;9223;50.988;3.162;2023-04-30T04:39:24;16.23;;;10.50;;
18194;SDS011;9223;50.988;3.162;2023-04-30T04:45:27;16.02;;;10.60;;
18194;SDS011;9223;50.988;3.162;2023-04-30T04:51:33;16.33;;;10.68;;
18194;SDS011;9223;50.988;3.162;2023-04-30T04:57:37;16.23;;;10.73;;
18194;SDS011;9223;50.988;3.162;2023-04-30T05:03:42;14.82;;;10.38;;
18194;SDS011;9223;50.988;3.162;2023-04-30T05:09:47;13.18;;;10.48;;
18194;SDS011;9223;50.988;3.162;2023-04-30T05:15:51;15.18;;;11.07;;
18194;SDS011;9223;50.988;3.162;2023-04-30T05:21:55;16.60;;;10.93;;
18194;SDS011;9223;50.988;3.162;2023-04-30T05:28:00;14.32;;;11.10;;
18194;SDS011;9223;50.988;3.162;2023-04-30T05:34:03;15.00;;;10.77;;
18194;SDS011;9223;50.988;3.162;2023-04-30T05:40:07;18.98;;;11.85;;
18194;SDS011;9223;50.988;3.162;2023-04-30T05:46:12;16.05;;;11.27;;
18194;SDS011;9223;50.988;3.162;2023-04-30T05:52:16;17.15;;;10.65;;
18194;SDS011;9223;50.988;3.162;2023-04-30T05:58:19;15.20;;;10.27;;
18194;SDS011;9223;50.988;3.162;2023-04-30T06:04:24;12.75;;;9.73;;
18194;SDS011;9223;50.988;3.162;2023-04-30T06:10:28;16.20;;;10.68;;
18194;SDS011;9223;50.988;3.162;2023-04-30T06:16:32;15.77;;;10.48;;
18194;SDS011;9223;50.988;3.162;2023-04-30T06:22:37;13.68;;;10.73;;
18194;SDS011;9223;50.988;3.162;2023-04-30T06:28:41;14.88;;;9.85;;
18194;SDS011;9223;50.988;3.162;2023-04-30T06:34:44;17.55;;;11.05;;
18194;SDS011;9223;50.988;3.162;2023-04-30T06:40:49;15.27;;;10.65;;
18194;SDS011;9223;50.988;3.162;2023-04-30T06:46:53;14.07;;;9.73;;
18194;SDS011;9223;50.988;3.162;2023-04-30T06:52:57;17.23;;;10.70;;
18194;SDS011;9223;50.988;3.162;2023-04-30T06:59:02;17.92;;;11.10;;
18194;SDS011;9223;50.988;3.162;2023-04-30T07:05:06;16.27;;;11.15;;
18194;SDS011;9223;50.988;3.162;2023-04-30T07:11:09;14.45;;;10.63;;
18194;SDS011;9223;50.988;3.162;2023-04-30T07:17:14;15.10;;;10.75;;
18194;SDS011;9223;50.988;3.162;2023-04-30T07:23:18;16.10;;;11.43;;
18194;SDS011;9223;50.988;3.162;2023-04-30T07:29:22;17.15;;;10.98;;
18194;SDS011;9223;50.988;3.162;2023-04-30T07:35:26;15.05;;;11.13;;
18194;SDS011;9223;50.988;3.162;2023-04-30T07:41:30;16.10;;;11.75;;
18194;SDS011;9223;50.988;3.162;2023-04-30T07:47:34;19.83;;;12.45;;
18194;SDS011;9223;50.988;3.162;2023-04-30T07:53:39;14.95;;;11.55;;
18194;SDS011;9223;50.988;3.162;2023-04-30T07:59:42;15.40;;;11.00;;
18194;SDS011;9223;50.988;3.162;2023-04-30T08:05:46;19.13;;;13.30;;
18194;SDS011;9223;50.988;3.162;2023-04-30T08:11:51;17.50;;;12.80;;
18194;SDS011;9223;50.988;3.162;2023-04-30T08:17:55;19.20;;;12.98;;
18194;SDS011;9223;50.988;3.162;2023-04-30T08:23:58;20.92;;;13.60;;
18194;SDS011;9223;50.988;3.162;2023-04-30T08:30:04;15.48;;;12.55;;
18194;SDS011;9223;50.988;3.162;2023-04-30T08:36:08;17.83;;;13.15;;
18194;SDS011;9223;50.988;3.162;2023-04-30T08:42:13;17.75;;;12.85;;
18194;SDS011;9223;50.988;3.162;2023-04-30T08:48:18;17.08;;;13.55;;
18194;SDS011;9223;50.988;3.162;2023-04-30T08:54:22;17.10;;;13.48;;
18194;SDS011;9223;50.988;3.162;2023-04-30T09:00:26;18.08;;;13.55;;
18194;SDS011;9223;50.988;3.162;2023-04-30T09:06:32;19.85;;;14.73;;
18194;SDS011;9223;50.988;3.162;2023-04-30T09:12:35;18.20;;;13.07;;
18194;SDS011;9223;50.988;3.162;2023-04-30T09:18:40;17.05;;;11.88;;
18194;SDS011;9223;50.988;3.162;2023-04-30T09:24:45;13.45;;;11.45;;
18194;SDS011;9223;50.988;3.162;2023-04-30T09:30:50;13.43;;;9.32;;
18194;SDS011;9223;50.988;3.162;2023-04-30T09:36:54;14.27;;;10.80;;
18194;SDS011;9223;50.988;3.162;2023-04-30T09:42:59;11.43;;;9.55;;
18194;SDS011;9223;50.988;3.162;2023-04-30T09:49:04;10.40;;;8.38;;
18194;SDS011;9223;50.988;3.162;2023-04-30T09:55:08;9.38;;;8.02;;
18194;SDS011;9223;50.988;3.162;2023-04-30T10:01:13;10.02;;;7.30;;
18194;SDS011;9223;50.988;3.162;2023-04-30T10:07:18;8.75;;;7.43;;
18194;SDS011;9223;50.988;3.162;2023-04-30T10:13:23;6.07;;;5.47;;
18194;SDS011;9223;50.988;3.162;2023-04-30T10:19:30;8.18;;;6.85;;
18194;SDS011;9223;50.988;3.162;2023-04-30T10:25:34;8.77;;;6.72;;
18194;SDS011;9223;50.988;3.162;2023-04-30T10:31:37;12.15;;;8.95;;
18194;SDS011;9223;50.988;3.162;2023-04-30T10:37:45;8.60;;;6.65;;
18194;SDS011;9223;50.988;3.162;2023-04-30T10:43:49;10.07;;;6.97;;
18194;SDS011;9223;50.988;3.162;2023-04-30T10:49:55;10.07;;;7.00;;
18194;SDS011;9223;50.988;3.162;2023-04-30T10:56:05;7.65;;;6.60;;
18194;SDS011;9223;50.988;3.162;2023-04-30T11:02:10;8.45;;;6.68;;
18194;SDS011;9223;50.988;3.162;2023-04-30T11:08:14;9.40;;;7.53;;
18194;SDS011;9223;50.988;3.162;2023-04-30T11:14:20;8.02;;;6.25;;
18194;SDS011;9223;50.988;3.162;2023-04-30T11:20:24;9.90;;;8.18;;
18194;SDS011;9223;50.988;3.162;2023-04-30T11:26:27;10.70;;;8.50;;
18194;SDS011;9223;50.988;3.162;2023-04-30T11:32:33;11.93;;;8.95;;
18194;SDS011;9223;50.988;3.162;2023-04-30T11:38:37;8.88;;;6.97;;
18194;SDS011;9223;50.988;3.162;2023-04-30T11:44:41;9.20;;;7.00;;
18194;SDS011;9223;50.988;3.162;2023-04-30T11:50:45;8.63;;;7.15;;
18194;SDS011;9223;50.988;3.162;2023-04-30T11:56:49;6.63;;;5.65;;
18194;SDS011;9223;50.988;3.162;2023-04-30T12:02:52;8.73;;;7.30;;
18194;SDS011;9223;50.988;3.162;2023-04-30T12:08:58;7.95;;;6.57;;
18194;SDS011;9223;50.988;3.162;2023-04-30T12:15:11;9.10;;;5.72;;
18194;SDS011;9223;50.988;3.162;2023-04-30T12:21:15;6.25;;;4.47;;
18194;SDS011;9223;50.988;3.162;2023-04-30T12:27:20;7.72;;;5.28;;
18194;SDS011;9223;50.988;3.162;2023-04-30T12:33:28;7.43;;;5.22;;
18194;SDS011;9223;50.988;3.162;2023-04-30T12:39:32;7.68;;;5.38;;
18194;SDS011;9223;50.988;3.162;2023-04-30T12:45:44;6.63;;;5.00;;
18194;SDS011;9223;50.988;3.162;2023-04-30T12:51:48;9.50;;;5.47;;
18194;SDS011;9223;50.988;3.162;2023-04-30T12:58:02;6.50;;;5.40;;
18194;SDS011;9223;50.988;3.162;2023-04-30T13:04:07;5.53;;;4.60;;
18194;SDS011;9223;50.988;3.162;2023-04-30T13:10:12;6.68;;;5.40;;
18194;SDS011;9223;50.988;3.162;2023-04-30T13:16:16;5.93;;;4.93;;
18194;SDS011;9223;50.988;3.162;2023-04-30T13:22:21;4.78;;;3.42;;
18194;SDS011;9223;50.988;3.162;2023-04-30T13:28:29;4.22;;;3.70;;
18194;SDS011;9223;50.988;3.162;2023-04-30T13:34:33;4.22;;;3.83;;
18194;SDS011;9223;50.988;3.162;2023-04-30T13:40:38;3.08;;;2.63;;
18194;SDS011;9223;50.988;3.162;2023-04-30T13:46:41;4.85;;;4.05;;
18194;SDS011;9223;50.988;3.162;2023-04-30T13:52:45;5.95;;;4.05;;
18194;SDS011;9223;50.988;3.162;2023-04-30T13:58:50;4.93;;;4.43;;
18194;SDS011;9223;50.988;3.162;2023-04-30T14:04:55;4.68;;;3.95;;
18194;SDS011;9223;50.988;3.162;2023-04-30T14:11:07;3.80;;;3.20;;
18194;SDS011;9223;50.988;3.162;2023-04-30T14:17:12;3.45;;;3.10;;
18194;SDS011;9223;50.988;3.162;2023-04-30T14:23:15;3.80;;;3.35;;
18194;SDS011;9223;50.988;3.162;2023-04-30T14:29:19;4.82;;;3.85;;
18194;SDS011;9223;50.988;3.162;2023-04-30T14:35:24;6.15;;;4.40;;
18194;SDS011;9223;50.988;3.162;2023-04-30T14:41:28;5.68;;;4.13;;
18194;SDS011;9223;50.988;3.162;2023-04-30T14:47:31;4.45;;;3.38;;
18194;SDS011;9223;50.988;3.162;2023-04-30T14:53:36;4.38;;;3.60;;
18194;SDS011;9223;50.988;3.162;2023-04-30T14:59:40;4.57;;;3.50;;
18194;SDS011;9223;50.988;3.162;2023-04-30T15:05:44;6.30;;;3.67;;
18194;SDS011;9223;50.988;3.162;2023-04-30T15:11:49;4.05;;;3.58;;
18194;SDS011;9223;50.988;3.162;2023-04-30T15:17:52;4.03;;;3.30;;
18194;SDS011;9223;50.988;3.162;2023-04-30T15:23:56;4.65;;;2.85;;
18194;SDS011;9223;50.988;3.162;2023-04-30T15:30:01;5.47;;;3.72;;
18194;SDS011;9223;50.988;3.162;2023-04-30T15:36:05;3.65;;;3.20;;
18194;SDS011;9223;50.988;3.162;2023-04-30T15:42:08;4.40;;;4.00;;
18194;SDS011;9223;50.988;3.162;2023-04-30T15:48:13;3.80;;;3.33;;
18194;SDS011;9223;50.988;3.162;2023-04-30T15:54:17;6.15;;;3.63;;
18194;SDS011;9223;50.988;3.162;2023-04-30T16:00:20;5.95;;;3.72;;
18194;SDS011;9223;50.988;3.162;2023-04-30T16:06:26;4.35;;;3.95;;
18194;SDS011;9223;50.988;3.162;2023-04-30T16:12:33;9.32;;;6.45;;
18194;SDS011;9223;50.988;3.162;2023-04-30T16:18:36;7.45;;;6.35;;
18194;SDS011;9223;50.988;3.162;2023-04-30T16:24:43;8.55;;;6.70;;
18194;SDS011;9223;50.988;3.162;2023-04-30T16:30:46;8.73;;;7.45;;
18194;SDS011;9223;50.988;3.162;2023-04-30T16:36:50;8.60;;;7.70;;
18194;SDS011;9223;50.988;3.162;2023-04-30T16:42:55;9.98;;;7.32;;
18194;SDS011;9223;50.988;3.162;2023-04-30T16:48:59;9.13;;;7.50;;
18194;SDS011;9223;50.988;3.162;2023-04-30T16:55:04;8.30;;;7.15;;
18194;SDS011;9223;50.988;3.162;2023-04-30T17:01:11;9.65;;;7.25;;
18194;SDS011;9223;50.988;3.162;2023-04-30T17:07:15;8.13;;;7.32;;
18194;SDS011;9223;50.988;3.162;2023-04-30T17:13:19;9.45;;;7.30;;
18194;SDS011;9223;50.988;3.162;2023-04-30T17:19:24;10.48;;;7.22;;
18194;SDS011;9223;50.988;3.162;2023-04-30T17:25:27;7.00;;;6.30;;
18194;SDS011;9223;50.988;3.162;2023-04-30T17:31:32;8.48;;;6.88;;
18194;SDS011;9223;50.988;3.162;2023-04-30T17:37:37;7.80;;;6.97;;
18194;SDS011;9223;50.988;3.162;2023-04-30T17:43:41;7.90;;;7.10;;
18194;SDS011;9223;50.988;3.162;2023-04-30T17:49:44;7.93;;;7.13;;
18194;SDS011;9223;50.988;3.162;2023-04-30T17:55:49;8.38;;;6.80;;
18194;SDS011;9223;50.988;3.162;2023-04-30T18:01:52;8.43;;;6.47;;
18194;SDS011;9223;50.988;3.162;2023-04-30T18:07:56;8.38;;;7.57;;
18194;SDS011;9223;50.988;3.162;2023-04-30T18:14:01;7.65;;;6.93;;
18194;SDS011;9223;50.988;3.162;2023-04-30T18:20:06;7.97;;;7.28;;
18194;SDS011;9223;50.988;3.162;2023-04-30T18:26:12;7.55;;;6.85;;
18194;SDS011;9223;50.988;3.162;2023-04-30T18:32:17;7.85;;;7.05;;
18194;SDS011;9223;50.988;3.162;2023-04-30T18:38:20;8.50;;;7.50;;
18194;SDS011;9223;50.988;3.162;2023-04-30T18:44:27;8.80;;;7.90;;
18194;SDS011;9223;50.988;3.162;2023-04-30T18:50:33;8.43;;;7.13;;
18194;SDS011;9223;50.988;3.162;2023-04-30T18:56:44;10.30;;;8.25;;
18194;SDS011;9223;50.988;3.162;2023-04-30T19:02:47;9.35;;;7.75;;
18194;SDS011;9223;50.988;3.162;2023-04-30T19:08:52;8.80;;;7.90;;
18194;SDS011;9223;50.988;3.162;2023-04-30T19:14:56;12.65;;;8.50;;
18194;SDS011;9223;50.988;3.162;2023-04-30T19:21:00;10.90;;;8.75;;
18194;SDS011;9223;50.988;3.162;2023-04-30T19:27:06;10.45;;;7.78;;
18194;SDS011;9223;50.988;3.162;2023-04-30T19:33:10;7.97;;;7.18;;
18194;SDS011;9223;50.988;3.162;2023-04-30T19:39:14;10.25;;;7.82;;
18194;SDS011;9223;50.988;3.162;2023-04-30T19:45:19;8.38;;;7.28;;
18194;SDS011;9223;50.988;3.162;2023-04-30T19:51:22;10.25;;;7.40;;
18194;SDS011;9223;50.988;3.162;2023-04-30T19:57:26;9.77;;;7.65;;
18194;SDS011;9223;50.988;3.162;2023-04-30T20:03:34;9.23;;;7.85;;
18194;SDS011;9223;50.988;3.162;2023-04-30T20:09:38;9.10;;;7.90;;
18194;SDS011;9223;50.988;3.162;2023-04-30T20:15:42;9.50;;;7.57;;
18194;SDS011;9223;50.988;3.162;2023-04-30T20:21:47;9.18;;;8.13;;
18194;SDS011;9223;50.988;3.162;2023-04-30T20:27:50;9.48;;;7.72;;
18194;SDS011;9223;50.988;3.162;2023-04-30T20:33:55;10.50;;;7.85;;
18194;SDS011;9223;50.988;3.162;2023-04-30T20:40:01;8.95;;;7.78;;
18194;SDS011;9223;50.988;3.162;2023-04-30T20:46:04;9.48;;;8.48;;
18194;SDS011;9223;50.988;3.162;2023-04-30T20:52:08;10.70;;;8.20;;
18194;SDS011;9223;50.988;3.162;2023-04-30T20:58:13;9.63;;;8.00;;
18194;SDS011;9223;50.988;3.162;2023-04-30T21:04:17;10.32;;;8.32;;
18194;SDS011;9223;50.988;3.162;2023-04-30T21:10:20;9.57;;;8.50;;
18194;SDS011;9223;50.988;3.162;2023-04-30T21:16:25;12.32;;;9.05;;
18194;SDS011;9223;50.988;3.162;2023-04-30T21:22:29;9.30;;;8.32;;
18194;SDS011;9223;50.988;3.162;2023-04-30T21:28:33;10.10;;;8.52;;
18194;SDS011;9223;50.988;3.162;2023-04-30T21:34:38;12.15;;;8.98;;
18194;SDS011;9223;50.988;3.162;2023-04-30T21:40:41;11.70;;;8.77;;
18194;SDS011;9223;50.988;3.162;2023-04-30T21:46:45;9.95;;;8.85;;
18194;SDS011;9223;50.988;3.162;2023-04-30T21:52:50;10.70;;;9.15;;
18194;SDS011;9223;50.988;3.162;2023-04-30T21:58:53;11.05;;;8.98;;
18194;SDS011;9223;50.988;3.162;2023-04-30T22:04:57;11.57;;;9.25;;
18194;SDS011;9223;50.988;3.162;2023-04-30T22:11:02;10.43;;;9.27;;
18194;SDS011;9223;50.988;3.162;2023-04-30T22:17:06;10.65;;;9.18;;
18194;SDS011;9223;50.988;3.162;2023-04-30T22:23:09;10.85;;;9.75;;
18194;SDS011;9223;50.988;3.162;2023-04-30T22:29:14;11.40;;;9.82;;
18194;SDS011;9223;50.988;3.162;2023-04-30T22:35:18;12.57;;;9.75;;
18194;SDS011;9223;50.988;3.162;2023-04-30T22:41:22;11.75;;;10.45;;
18194;SDS011;9223;50.988;3.162;2023-04-30T22:47:27;11.18;;;10.02;;
18194;SDS011;9223;50.988;3.162;2023-04-30T22:53:31;13.43;;;10.02;;
18194;SDS011;9223;50.988;3.162;2023-04-30T22:59:35;12.75;;;11.07;;
18194;SDS011;9223;50.988;3.162;2023-04-30T23:05:41;11.30;;;10.02;;
18194;SDS011;9223;50.988;3.162;2023-04-30T23:11:44;12.27;;;10.68;;
18194;SDS011;9223;50.988;3.162;2023-04-30T23:17:48;12.45;;;11.15;;
18194;SDS011;9223;50.988;3.162;2023-04-30T23:23:53;12.45;;;10.73;;
18194;SDS011;9223;50.988;3.162;2023-04-30T23:29:57;12.50;;;11.20;;
18194;SDS011;9223;50.988;3.162;2023-04-30T23:36:01;11.98;;;10.77;;
18194;SDS011;9223;50.988;3.162;2023-04-30T23:42:05;13.25;;;11.68;;
18194;SDS011;9223;50.988;3.162;2023-04-30T23:48:09;13.00;;;11.60;;
18194;SDS011;9223;50.988;3.162;2023-04-30T23:54:12;12.85;;;11.13;;
